Tompo, Russia
Current Conditions -  °F | °C
As of 1:00 AM on Tuesday 25 Nov 2014 (Local Time) from UEEE Reporting Station
Clear Clear  
Wind Chill: -27°   Ceiling: Unl
Heat Index: -15°   Visibility: 6mi
Dew Point: -18°   Wind: 4mph
Humidity: 84%   Direction: 360°N
Pressure: 29.74"   Gusts: NA
Location:  63.91°N, 135.86°E
Report Text: UEEE 241500Z 36002MPS CAVOK M26/M28 Q1007 NOSIG RMK QFE74723490150
Loading
Personal Weather Stations






























Interactive Weather Map New forecast layout! Learn more

10-Day Weather Forecast

Advertisements
Track Severe Weather on mobile